sensor_id;sensor_type;location;lat;lon;timestamp;P1;durP1;ratioP1;P2;durP2;ratioP2
52554;SDS011;38455;52.710;6.502;2022-12-22T00:01:53;49.05;;;26.42;;
52554;SDS011;38455;52.710;6.502;2022-12-22T00:04:38;49.15;;;26.67;;
52554;SDS011;38455;52.710;6.502;2022-12-22T00:07:25;46.30;;;24.63;;
52554;SDS011;38455;52.710;6.502;2022-12-22T00:10:09;51.08;;;25.85;;
52554;SDS011;38455;52.710;6.502;2022-12-22T00:12:54;52.70;;;26.52;;
52554;SDS011;38455;52.710;6.502;2022-12-22T00:15:38;48.90;;;25.17;;
52554;SDS011;38455;52.710;6.502;2022-12-22T00:18:22;45.80;;;24.13;;
52554;SDS011;38455;52.710;6.502;2022-12-22T00:21:09;51.78;;;25.63;;
52554;SDS011;38455;52.710;6.502;2022-12-22T00:23:55;48.42;;;25.25;;
52554;SDS011;38455;52.710;6.502;2022-12-22T00:26:40;50.42;;;25.27;;
52554;SDS011;38455;52.710;6.502;2022-12-22T00:29:27;47.92;;;24.20;;
52554;SDS011;38455;52.710;6.502;2022-12-22T00:32:19;53.28;;;25.13;;
52554;SDS011;38455;52.710;6.502;2022-12-22T00:35:04;49.20;;;24.30;;
52554;SDS011;38455;52.710;6.502;2022-12-22T00:37:53;47.22;;;26.27;;
52554;SDS011;38455;52.710;6.502;2022-12-22T00:40:38;47.67;;;25.20;;
52554;SDS011;38455;52.710;6.502;2022-12-22T00:43:22;46.45;;;25.02;;
52554;SDS011;38455;52.710;6.502;2022-12-22T00:46:07;47.97;;;25.77;;
52554;SDS011;38455;52.710;6.502;2022-12-22T00:48:54;47.70;;;24.67;;
52554;SDS011;38455;52.710;6.502;2022-12-22T00:51:38;53.80;;;26.33;;
52554;SDS011;38455;52.710;6.502;2022-12-22T00:54:23;56.80;;;27.60;;
52554;SDS011;38455;52.710;6.502;2022-12-22T00:57:09;51.85;;;26.25;;
52554;SDS011;38455;52.710;6.502;2022-12-22T00:59:59;52.72;;;24.38;;
52554;SDS011;38455;52.710;6.502;2022-12-22T01:02:45;56.80;;;26.75;;
52554;SDS011;38455;52.710;6.502;2022-12-22T01:05:29;60.10;;;27.92;;
52554;SDS011;38455;52.710;6.502;2022-12-22T01:08:13;58.67;;;27.27;;
52554;SDS011;38455;52.710;6.502;2022-12-22T01:10:58;56.50;;;27.30;;
52554;SDS011;38455;52.710;6.502;2022-12-22T01:13:42;54.65;;;27.10;;
52554;SDS011;38455;52.710;6.502;2022-12-22T01:16:26;56.78;;;28.13;;
52554;SDS011;38455;52.710;6.502;2022-12-22T01:19:11;61.10;;;28.17;;
52554;SDS011;38455;52.710;6.502;2022-12-22T01:21:55;54.45;;;27.30;;
52554;SDS011;38455;52.710;6.502;2022-12-22T01:24:40;57.50;;;26.83;;
52554;SDS011;38455;52.710;6.502;2022-12-22T01:27:28;62.38;;;27.13;;
52554;SDS011;38455;52.710;6.502;2022-12-22T01:30:12;54.03;;;26.75;;
52554;SDS011;38455;52.710;6.502;2022-12-22T01:32:57;53.75;;;27.63;;
52554;SDS011;38455;52.710;6.502;2022-12-22T01:35:41;57.03;;;27.90;;
52554;SDS011;38455;52.710;6.502;2022-12-22T01:38:26;51.10;;;27.27;;
52554;SDS011;38455;52.710;6.502;2022-12-22T01:41:11;54.50;;;27.00;;
52554;SDS011;38455;52.710;6.502;2022-12-22T01:43:59;53.97;;;26.65;;
52554;SDS011;38455;52.710;6.502;2022-12-22T01:46:44;59.47;;;27.83;;
52554;SDS011;38455;52.710;6.502;2022-12-22T01:49:40;53.58;;;27.95;;
52554;SDS011;38455;52.710;6.502;2022-12-22T01:52:30;52.15;;;26.33;;
52554;SDS011;38455;52.710;6.502;2022-12-22T01:55:19;56.05;;;26.42;;
52554;SDS011;38455;52.710;6.502;2022-12-22T01:58:05;53.13;;;25.63;;
52554;SDS011;38455;52.710;6.502;2022-12-22T02:00:59;51.70;;;26.23;;
52554;SDS011;38455;52.710;6.502;2022-12-22T02:03:43;51.75;;;27.00;;
52554;SDS011;38455;52.710;6.502;2022-12-22T02:06:32;54.13;;;26.80;;
52554;SDS011;38455;52.710;6.502;2022-12-22T02:12:50;47.53;;;25.20;;
52554;SDS011;38455;52.710;6.502;2022-12-22T02:18:36;56.80;;;27.65;;
52554;SDS011;38455;52.710;6.502;2022-12-22T02:21:32;61.60;;;27.65;;
52554;SDS011;38455;52.710;6.502;2022-12-22T02:24:30;51.10;;;25.73;;
52554;SDS011;38455;52.710;6.502;2022-12-22T02:27:20;53.10;;;26.23;;
52554;SDS011;38455;52.710;6.502;2022-12-22T02:30:06;61.35;;;28.70;;
52554;SDS011;38455;52.710;6.502;2022-12-22T02:32:51;62.97;;;28.20;;
52554;SDS011;38455;52.710;6.502;2022-12-22T02:35:48;53.38;;;27.92;;
52554;SDS011;38455;52.710;6.502;2022-12-22T02:44:41;52.00;;;27.38;;
52554;SDS011;38455;52.710;6.502;2022-12-22T02:53:19;54.47;;;27.08;;
52554;SDS011;38455;52.710;6.502;2022-12-22T02:56:06;54.72;;;27.65;;
52554;SDS011;38455;52.710;6.502;2022-12-22T02:58:53;55.33;;;25.55;;
52554;SDS011;38455;52.710;6.502;2022-12-22T03:01:38;54.17;;;27.10;;
52554;SDS011;38455;52.710;6.502;2022-12-22T03:04:26;56.20;;;27.95;;
52554;SDS011;38455;52.710;6.502;2022-12-22T03:07:10;58.58;;;27.02;;
52554;SDS011;38455;52.710;6.502;2022-12-22T03:09:55;56.00;;;28.17;;
52554;SDS011;38455;52.710;6.502;2022-12-22T03:12:39;51.10;;;25.85;;
52554;SDS011;38455;52.710;6.502;2022-12-22T03:15:24;51.05;;;26.35;;
52554;SDS011;38455;52.710;6.502;2022-12-22T03:18:09;49.20;;;27.02;;
52554;SDS011;38455;52.710;6.502;2022-12-22T03:20:54;56.33;;;27.30;;
52554;SDS011;38455;52.710;6.502;2022-12-22T03:23:38;58.63;;;28.38;;
52554;SDS011;38455;52.710;6.502;2022-12-22T03:26:23;57.13;;;28.23;;
52554;SDS011;38455;52.710;6.502;2022-12-22T03:28:48;53.63;;;26.50;;
52554;SDS011;38455;52.710;6.502;2022-12-22T03:31:14;53.35;;;27.38;;
52554;SDS011;38455;52.710;6.502;2022-12-22T03:33:40;52.83;;;27.35;;
52554;SDS011;38455;52.710;6.502;2022-12-22T03:36:06;57.85;;;27.90;;
52554;SDS011;38455;52.710;6.502;2022-12-22T03:38:33;57.28;;;26.70;;
52554;SDS011;38455;52.710;6.502;2022-12-22T03:40:58;59.38;;;27.65;;
52554;SDS011;38455;52.710;6.502;2022-12-22T03:43:25;61.03;;;27.27;;
52554;SDS011;38455;52.710;6.502;2022-12-22T03:46:10;58.08;;;28.10;;
52554;SDS011;38455;52.710;6.502;2022-12-22T03:48:58;53.55;;;27.17;;
52554;SDS011;38455;52.710;6.502;2022-12-22T03:51:35;53.92;;;27.88;;
52554;SDS011;38455;52.710;6.502;2022-12-22T03:54:06;54.65;;;27.38;;
52554;SDS011;38455;52.710;6.502;2022-12-22T03:56:32;56.05;;;27.15;;
52554;SDS011;38455;52.710;6.502;2022-12-22T03:58:58;59.42;;;28.27;;
52554;SDS011;38455;52.710;6.502;2022-12-22T04:01:24;54.58;;;26.45;;
52554;SDS011;38455;52.710;6.502;2022-12-22T04:03:50;56.92;;;27.35;;
52554;SDS011;38455;52.710;6.502;2022-12-22T04:06:16;58.70;;;27.20;;
52554;SDS011;38455;52.710;6.502;2022-12-22T04:08:42;59.78;;;28.05;;
52554;SDS011;38455;52.710;6.502;2022-12-22T04:11:11;54.15;;;26.80;;
52554;SDS011;38455;52.710;6.502;2022-12-22T04:13:56;60.92;;;27.15;;
52554;SDS011;38455;52.710;6.502;2022-12-22T04:16:22;55.65;;;26.95;;
52554;SDS011;38455;52.710;6.502;2022-12-22T04:18:48;58.30;;;27.92;;
52554;SDS011;38455;52.710;6.502;2022-12-22T04:21:13;56.22;;;27.38;;
52554;SDS011;38455;52.710;6.502;2022-12-22T04:23:39;60.47;;;26.75;;
52554;SDS011;38455;52.710;6.502;2022-12-22T04:26:05;56.85;;;27.48;;
52554;SDS011;38455;52.710;6.502;2022-12-22T04:28:31;61.45;;;28.30;;
52554;SDS011;38455;52.710;6.502;2022-12-22T04:30:56;60.10;;;27.52;;
52554;SDS011;38455;52.710;6.502;2022-12-22T04:33:22;60.90;;;26.70;;
52554;SDS011;38455;52.710;6.502;2022-12-22T04:35:48;59.10;;;27.55;;
52554;SDS011;38455;52.710;6.502;2022-12-22T04:38:13;61.40;;;28.05;;
52554;SDS011;38455;52.710;6.502;2022-12-22T04:40:39;62.08;;;27.30;;
52554;SDS011;38455;52.710;6.502;2022-12-22T04:43:05;62.80;;;29.13;;
52554;SDS011;38455;52.710;6.502;2022-12-22T04:45:30;61.75;;;28.25;;
52554;SDS011;38455;52.710;6.502;2022-12-22T04:47:56;54.20;;;27.77;;
52554;SDS011;38455;52.710;6.502;2022-12-22T04:50:22;56.03;;;26.52;;
52554;SDS011;38455;52.710;6.502;2022-12-22T04:52:47;59.95;;;27.90;;
52554;SDS011;38455;52.710;6.502;2022-12-22T04:55:13;61.75;;;27.40;;
52554;SDS011;38455;52.710;6.502;2022-12-22T04:57:38;83.97;;;29.08;;
52554;SDS011;38455;52.710;6.502;2022-12-22T05:00:04;87.72;;;29.05;;
52554;SDS011;38455;52.710;6.502;2022-12-22T05:02:30;75.68;;;28.48;;
52554;SDS011;38455;52.710;6.502;2022-12-22T05:04:56;80.45;;;28.80;;
52554;SDS011;38455;52.710;6.502;2022-12-22T05:07:21;76.07;;;28.85;;
52554;SDS011;38455;52.710;6.502;2022-12-22T05:09:47;79.65;;;28.83;;
52554;SDS011;38455;52.710;6.502;2022-12-22T05:12:13;142.65;;;34.42;;
52554;SDS011;38455;52.710;6.502;2022-12-22T05:15:16;139.20;;;32.28;;
52554;SDS011;38455;52.710;6.502;2022-12-22T05:17:42;83.15;;;30.35;;
52554;SDS011;38455;52.710;6.502;2022-12-22T05:20:08;85.95;;;29.92;;
52554;SDS011;38455;52.710;6.502;2022-12-22T05:22:33;83.03;;;29.30;;
52554;SDS011;38455;52.710;6.502;2022-12-22T05:24:59;78.80;;;28.50;;
52554;SDS011;38455;52.710;6.502;2022-12-22T05:27:25;65.45;;;27.50;;
52554;SDS011;38455;52.710;6.502;2022-12-22T05:29:50;74.22;;;27.70;;
52554;SDS011;38455;52.710;6.502;2022-12-22T05:32:16;88.70;;;27.60;;
52554;SDS011;38455;52.710;6.502;2022-12-22T05:34:41;63.72;;;26.48;;
52554;SDS011;38455;52.710;6.502;2022-12-22T05:37:07;80.18;;;27.20;;
52554;SDS011;38455;52.710;6.502;2022-12-22T05:39:33;58.60;;;25.58;;
52554;SDS011;38455;52.710;6.502;2022-12-22T05:41:58;53.80;;;24.73;;
52554;SDS011;38455;52.710;6.502;2022-12-22T05:44:24;56.47;;;25.40;;
52554;SDS011;38455;52.710;6.502;2022-12-22T05:46:50;59.05;;;25.23;;
52554;SDS011;38455;52.710;6.502;2022-12-22T05:49:19;54.53;;;25.05;;
52554;SDS011;38455;52.710;6.502;2022-12-22T05:51:44;55.75;;;23.83;;
52554;SDS011;38455;52.710;6.502;2022-12-22T05:54:10;57.40;;;25.15;;
52554;SDS011;38455;52.710;6.502;2022-12-22T05:56:36;59.22;;;25.02;;
52554;SDS011;38455;52.710;6.502;2022-12-22T05:59:02;53.60;;;24.83;;
52554;SDS011;38455;52.710;6.502;2022-12-22T06:01:28;62.78;;;25.38;;
52554;SDS011;38455;52.710;6.502;2022-12-22T06:03:53;63.75;;;24.55;;
52554;SDS011;38455;52.710;6.502;2022-12-22T06:06:19;78.65;;;27.52;;
52554;SDS011;38455;52.710;6.502;2022-12-22T06:08:45;56.03;;;24.23;;
52554;SDS011;38455;52.710;6.502;2022-12-22T06:11:11;56.25;;;25.45;;
52554;SDS011;38455;52.710;6.502;2022-12-22T06:13:37;84.00;;;25.60;;
52554;SDS011;38455;52.710;6.502;2022-12-22T06:16:03;79.43;;;25.33;;
52554;SDS011;38455;52.710;6.502;2022-12-22T06:18:29;73.15;;;25.02;;
52554;SDS011;38455;52.710;6.502;2022-12-22T06:20:55;73.97;;;25.95;;
52554;SDS011;38455;52.710;6.502;2022-12-22T06:23:20;87.85;;;26.88;;
52554;SDS011;38455;52.710;6.502;2022-12-22T06:25:56;104.53;;;30.52;;
52554;SDS011;38455;52.710;6.502;2022-12-22T06:28:23;91.20;;;30.00;;
52554;SDS011;38455;52.710;6.502;2022-12-22T06:30:49;107.00;;;31.35;;
52554;SDS011;38455;52.710;6.502;2022-12-22T06:33:15;119.38;;;31.92;;
52554;SDS011;38455;52.710;6.502;2022-12-22T06:35:41;121.93;;;31.90;;
52554;SDS011;38455;52.710;6.502;2022-12-22T06:38:06;142.55;;;34.08;;
52554;SDS011;38455;52.710;6.502;2022-12-22T06:40:32;127.22;;;34.50;;
52554;SDS011;38455;52.710;6.502;2022-12-22T06:42:58;192.25;;;40.05;;
52554;SDS011;38455;52.710;6.502;2022-12-22T06:45:33;175.38;;;40.05;;
52554;SDS011;38455;52.710;6.502;2022-12-22T06:48:05;190.65;;;40.20;;
52554;SDS011;38455;52.710;6.502;2022-12-22T06:50:32;184.05;;;40.13;;
52554;SDS011;38455;52.710;6.502;2022-12-22T06:52:58;140.52;;;33.65;;
52554;SDS011;38455;52.710;6.502;2022-12-22T06:55:23;136.20;;;34.13;;
52554;SDS011;38455;52.710;6.502;2022-12-22T06:57:49;122.18;;;32.08;;
52554;SDS011;38455;52.710;6.502;2022-12-22T07:00:15;120.72;;;31.33;;
52554;SDS011;38455;52.710;6.502;2022-12-22T07:02:41;114.00;;;31.77;;
52554;SDS011;38455;52.710;6.502;2022-12-22T07:05:06;119.88;;;31.10;;
52554;SDS011;38455;52.710;6.502;2022-12-22T07:07:33;156.85;;;33.28;;
52554;SDS011;38455;52.710;6.502;2022-12-22T07:09:59;152.45;;;26.95;;
52554;SDS011;38455;52.710;6.502;2022-12-22T07:12:25;112.38;;;29.20;;
52554;SDS011;38455;52.710;6.502;2022-12-22T07:14:50;155.73;;;30.83;;
52554;SDS011;38455;52.710;6.502;2022-12-22T07:17:16;115.15;;;27.05;;
52554;SDS011;38455;52.710;6.502;2022-12-22T07:19:42;86.35;;;24.73;;
52554;SDS011;38455;52.710;6.502;2022-12-22T07:22:07;100.63;;;24.90;;
52554;SDS011;38455;52.710;6.502;2022-12-22T07:24:33;237.43;;;30.52;;
52554;SDS011;38455;52.710;6.502;2022-12-22T07:26:59;303.58;;;37.05;;
52554;SDS011;38455;52.710;6.502;2022-12-22T07:29:24;384.48;;;40.15;;
52554;SDS011;38455;52.710;6.502;2022-12-22T07:31:50;276.40;;;32.72;;
52554;SDS011;38455;52.710;6.502;2022-12-22T07:34:16;446.85;;;39.47;;
52554;SDS011;38455;52.710;6.502;2022-12-22T07:36:42;614.78;;;55.25;;
52554;SDS011;38455;52.710;6.502;2022-12-22T07:39:07;544.80;;;44.38;;
52554;SDS011;38455;52.710;6.502;2022-12-22T07:41:33;449.77;;;41.53;;
52554;SDS011;38455;52.710;6.502;2022-12-22T07:44:17;544.67;;;42.70;;
52554;SDS011;38455;52.710;6.502;2022-12-22T07:46:43;236.65;;;31.50;;
52554;SDS011;38455;52.710;6.502;2022-12-22T07:49:09;306.08;;;35.42;;
52554;SDS011;38455;52.710;6.502;2022-12-22T07:51:55;247.32;;;35.35;;
52554;SDS011;38455;52.710;6.502;2022-12-22T07:54:21;178.27;;;33.70;;
52554;SDS011;38455;52.710;6.502;2022-12-22T07:56:48;164.80;;;31.20;;
52554;SDS011;38455;52.710;6.502;2022-12-22T07:59:14;291.55;;;38.53;;
52554;SDS011;38455;52.710;6.502;2022-12-22T08:01:39;200.15;;;27.48;;
52554;SDS011;38455;52.710;6.502;2022-12-22T08:04:05;234.27;;;31.67;;
52554;SDS011;38455;52.710;6.502;2022-12-22T08:06:32;222.57;;;30.90;;
52554;SDS011;38455;52.710;6.502;2022-12-22T08:08:58;158.05;;;29.13;;
52554;SDS011;38455;52.710;6.502;2022-12-22T08:11:24;172.98;;;30.15;;
52554;SDS011;38455;52.710;6.502;2022-12-22T08:13:50;202.93;;;32.97;;
52554;SDS011;38455;52.710;6.502;2022-12-22T08:16:16;104.28;;;22.77;;
52554;SDS011;38455;52.710;6.502;2022-12-22T08:18:43;123.00;;;23.85;;
52554;SDS011;38455;52.710;6.502;2022-12-22T08:21:09;81.45;;;22.77;;
52554;SDS011;38455;52.710;6.502;2022-12-22T08:23:35;75.32;;;20.83;;
52554;SDS011;38455;52.710;6.502;2022-12-22T08:26:11;73.28;;;20.30;;
52554;SDS011;38455;52.710;6.502;2022-12-22T08:28:42;54.58;;;19.30;;
52554;SDS011;38455;52.710;6.502;2022-12-22T08:31:12;69.88;;;21.42;;
52554;SDS011;38455;52.710;6.502;2022-12-22T08:33:38;79.47;;;23.60;;
52554;SDS011;38455;52.710;6.502;2022-12-22T08:36:04;68.07;;;21.13;;
52554;SDS011;38455;52.710;6.502;2022-12-22T08:38:31;82.80;;;21.02;;
52554;SDS011;38455;52.710;6.502;2022-12-22T08:40:57;65.03;;;22.27;;
52554;SDS011;38455;52.710;6.502;2022-12-22T08:43:23;71.32;;;20.08;;
52554;SDS011;38455;52.710;6.502;2022-12-22T08:45:49;74.15;;;21.13;;
52554;SDS011;38455;52.710;6.502;2022-12-22T08:48:15;85.93;;;20.02;;
52554;SDS011;38455;52.710;6.502;2022-12-22T08:50:40;123.97;;;22.40;;
52554;SDS011;38455;52.710;6.502;2022-12-22T08:53:06;61.15;;;17.80;;
52554;SDS011;38455;52.710;6.502;2022-12-22T08:55:33;76.35;;;15.80;;
52554;SDS011;38455;52.710;6.502;2022-12-22T08:57:58;86.95;;;16.77;;
52554;SDS011;38455;52.710;6.502;2022-12-22T09:00:24;81.82;;;16.50;;
52554;SDS011;38455;52.710;6.502;2022-12-22T09:02:50;103.95;;;17.55;;
52554;SDS011;38455;52.710;6.502;2022-12-22T09:05:16;46.05;;;13.55;;
52554;SDS011;38455;52.710;6.502;2022-12-22T09:07:42;65.00;;;14.00;;
52554;SDS011;38455;52.710;6.502;2022-12-22T09:10:08;48.38;;;13.82;;
52554;SDS011;38455;52.710;6.502;2022-12-22T09:12:34;45.47;;;13.60;;
52554;SDS011;38455;52.710;6.502;2022-12-22T09:15:00;44.40;;;14.25;;
52554;SDS011;38455;52.710;6.502;2022-12-22T09:17:26;66.20;;;15.60;;
52554;SDS011;38455;52.710;6.502;2022-12-22T09:19:52;75.75;;;16.73;;
52554;SDS011;38455;52.710;6.502;2022-12-22T09:22:17;51.53;;;13.77;;
52554;SDS011;38455;52.710;6.502;2022-12-22T09:24:43;84.75;;;17.13;;
52554;SDS011;38455;52.710;6.502;2022-12-22T09:27:09;96.35;;;18.75;;
52554;SDS011;38455;52.710;6.502;2022-12-22T09:29:35;75.75;;;17.92;;
52554;SDS011;38455;52.710;6.502;2022-12-22T09:32:02;90.75;;;17.58;;
52554;SDS011;38455;52.710;6.502;2022-12-22T09:34:28;79.03;;;16.40;;
52554;SDS011;38455;52.710;6.502;2022-12-22T09:36:54;45.80;;;13.70;;
52554;SDS011;38455;52.710;6.502;2022-12-22T09:39:20;46.08;;;13.77;;
52554;SDS011;38455;52.710;6.502;2022-12-22T09:41:52;43.63;;;13.95;;
52554;SDS011;38455;52.710;6.502;2022-12-22T09:44:24;44.35;;;15.50;;
52554;SDS011;38455;52.710;6.502;2022-12-22T09:46:52;58.70;;;14.45;;
52554;SDS011;38455;52.710;6.502;2022-12-22T09:49:20;56.47;;;15.07;;
52554;SDS011;38455;52.710;6.502;2022-12-22T09:51:48;48.55;;;15.43;;
52554;SDS011;38455;52.710;6.502;2022-12-22T09:54:17;52.40;;;16.38;;
52554;SDS011;38455;52.710;6.502;2022-12-22T09:56:44;42.75;;;13.40;;
52554;SDS011;38455;52.710;6.502;2022-12-22T09:59:10;50.17;;;13.55;;
52554;SDS011;38455;52.710;6.502;2022-12-22T10:04:13;36.67;;;13.63;;
52554;SDS011;38455;52.710;6.502;2022-12-22T10:06:58;31.27;;;11.02;;
52554;SDS011;38455;52.710;6.502;2022-12-22T10:09:49;22.83;;;8.93;;
52554;SDS011;38455;52.710;6.502;2022-12-22T10:12:16;19.83;;;8.65;;
52554;SDS011;38455;52.710;6.502;2022-12-22T10:14:46;29.02;;;8.90;;
52554;SDS011;38455;52.710;6.502;2022-12-22T10:17:24;23.05;;;9.00;;
52554;SDS011;38455;52.710;6.502;2022-12-22T10:19:53;21.65;;;8.57;;
52554;SDS011;38455;52.710;6.502;2022-12-22T10:22:34;22.60;;;9.05;;
52554;SDS011;38455;52.710;6.502;2022-12-22T10:25:04;24.67;;;9.70;;
52554;SDS011;38455;52.710;6.502;2022-12-22T10:27:31;22.55;;;9.52;;
52554;SDS011;38455;52.710;6.502;2022-12-22T10:32:59;20.65;;;9.13;;
52554;SDS011;38455;52.710;6.502;2022-12-22T10:35:34;21.10;;;9.57;;
52554;SDS011;38455;52.710;6.502;2022-12-22T10:38:13;21.58;;;8.05;;
52554;SDS011;38455;52.710;6.502;2022-12-22T10:40:42;18.77;;;6.97;;
52554;SDS011;38455;52.710;6.502;2022-12-22T10:43:10;16.20;;;7.22;;
52554;SDS011;38455;52.710;6.502;2022-12-22T10:45:46;16.40;;;8.23;;
52554;SDS011;38455;52.710;6.502;2022-12-22T10:48:12;19.08;;;8.68;;
52554;SDS011;38455;52.710;6.502;2022-12-22T10:50:45;23.20;;;7.50;;
52554;SDS011;38455;52.710;6.502;2022-12-22T10:53:12;16.48;;;7.95;;
52554;SDS011;38455;52.710;6.502;2022-12-22T10:55:38;20.35;;;8.52;;
52554;SDS011;38455;52.710;6.502;2022-12-22T11:00:41;17.45;;;7.70;;
52554;SDS011;38455;52.710;6.502;2022-12-22T11:03:09;17.42;;;7.80;;
52554;SDS011;38455;52.710;6.502;2022-12-22T11:05:38;21.98;;;8.98;;
52554;SDS011;38455;52.710;6.502;2022-12-22T11:08:17;21.33;;;9.18;;
52554;SDS011;38455;52.710;6.502;2022-12-22T11:30:11;27.25;;;11.05;;
52554;SDS011;38455;52.710;6.502;2022-12-22T11:35:45;19.65;;;8.07;;
52554;SDS011;38455;52.710;6.502;2022-12-22T11:38:47;19.70;;;8.63;;
52554;SDS011;38455;52.710;6.502;2022-12-22T11:41:23;24.75;;;9.30;;
52554;SDS011;38455;52.710;6.502;2022-12-22T11:49:15;16.05;;;7.97;;
52554;SDS011;38455;52.710;6.502;2022-12-22T11:57:14;19.17;;;7.13;;
52554;SDS011;38455;52.710;6.502;2022-12-22T12:00:06;17.45;;;8.20;;
52554;SDS011;38455;52.710;6.502;2022-12-22T12:05:41;18.45;;;7.90;;
52554;SDS011;38455;52.710;6.502;2022-12-22T12:11:14;16.85;;;7.45;;
52554;SDS011;38455;52.710;6.502;2022-12-22T12:24:59;22.90;;;8.65;;
52554;SDS011;38455;52.710;6.502;2022-12-22T12:28:00;22.65;;;8.85;;
52554;SDS011;38455;52.710;6.502;2022-12-22T12:30:24;21.05;;;8.27;;
52554;SDS011;38455;52.710;6.502;2022-12-22T12:32:54;18.95;;;7.50;;
52554;SDS011;38455;52.710;6.502;2022-12-22T12:38:20;17.30;;;6.30;;
52554;SDS011;38455;52.710;6.502;2022-12-22T12:41:08;14.50;;;6.07;;
52554;SDS011;38455;52.710;6.502;2022-12-22T12:43:44;18.17;;;6.38;;
52554;SDS011;38455;52.710;6.502;2022-12-22T12:49:04;17.90;;;6.00;;
52554;SDS011;38455;52.710;6.502;2022-12-22T12:51:46;22.15;;;6.10;;
52554;SDS011;38455;52.710;6.502;2022-12-22T12:56:58;15.93;;;5.43;;
52554;SDS011;38455;52.710;6.502;2022-12-22T13:10:30;14.35;;;4.88;;
52554;SDS011;38455;52.710;6.502;2022-12-22T13:12:58;17.73;;;5.72;;
52554;SDS011;38455;52.710;6.502;2022-12-22T13:15:34;17.05;;;4.20;;
52554;SDS011;38455;52.710;6.502;2022-12-22T13:18:47;14.13;;;4.63;;
52554;SDS011;38455;52.710;6.502;2022-12-22T13:20:58;9.95;;;4.10;;
52554;SDS011;38455;52.710;6.502;2022-12-22T13:23:29;14.65;;;4.50;;
52554;SDS011;38455;52.710;6.502;2022-12-22T13:26:05;8.95;;;4.15;;
52554;SDS011;38455;52.710;6.502;2022-12-22T13:28:39;9.93;;;3.75;;
52554;SDS011;38455;52.710;6.502;2022-12-22T13:37:17;9.25;;;3.80;;
52554;SDS011;38455;52.710;6.502;2022-12-22T13:42:47;12.50;;;3.75;;
52554;SDS011;38455;52.710;6.502;2022-12-22T13:47:51;9.63;;;3.45;;
52554;SDS011;38455;52.710;6.502;2022-12-22T13:50:18;7.47;;;3.42;;
52554;SDS011;38455;52.710;6.502;2022-12-22T13:52:44;11.48;;;3.17;;
52554;SDS011;38455;52.710;6.502;2022-12-22T13:55:12;13.30;;;3.10;;
52554;SDS011;38455;52.710;6.502;2022-12-22T13:57:44;7.65;;;3.35;;
52554;SDS011;38455;52.710;6.502;2022-12-22T14:00:23;9.02;;;3.30;;
52554;SDS011;38455;52.710;6.502;2022-12-22T14:02:50;14.15;;;3.80;;
52554;SDS011;38455;52.710;6.502;2022-12-22T14:05:16;12.23;;;3.30;;
52554;SDS011;38455;52.710;6.502;2022-12-22T14:08:00;15.48;;;3.47;;
52554;SDS011;38455;52.710;6.502;2022-12-22T14:10:32;7.90;;;3.05;;
52554;SDS011;38455;52.710;6.502;2022-12-22T14:13:11;11.85;;;3.85;;
52554;SDS011;38455;52.710;6.502;2022-12-22T14:15:39;14.27;;;3.65;;
52554;SDS011;38455;52.710;6.502;2022-12-22T14:18:06;14.35;;;4.40;;
52554;SDS011;38455;52.710;6.502;2022-12-22T14:20:36;14.35;;;4.55;;
52554;SDS011;38455;52.710;6.502;2022-12-22T14:23:06;14.57;;;4.03;;
52554;SDS011;38455;52.710;6.502;2022-12-22T14:25:37;14.00;;;4.90;;
52554;SDS011;38455;52.710;6.502;2022-12-22T14:28:05;16.13;;;4.75;;
52554;SDS011;38455;52.710;6.502;2022-12-22T14:30:43;14.05;;;5.10;;
52554;SDS011;38455;52.710;6.502;2022-12-22T14:38:40;11.90;;;4.28;;
52554;SDS011;38455;52.710;6.502;2022-12-22T14:44:11;12.70;;;4.60;;
52554;SDS011;38455;52.710;6.502;2022-12-22T14:46:43;15.15;;;4.90;;
52554;SDS011;38455;52.710;6.502;2022-12-22T14:49:13;16.38;;;5.13;;
52554;SDS011;38455;52.710;6.502;2022-12-22T14:51:42;13.30;;;5.05;;
52554;SDS011;38455;52.710;6.502;2022-12-22T14:54:21;11.32;;;5.13;;
52554;SDS011;38455;52.710;6.502;2022-12-22T14:56:50;12.30;;;4.38;;
52554;SDS011;38455;52.710;6.502;2022-12-22T14:59:24;11.20;;;4.72;;
52554;SDS011;38455;52.710;6.502;2022-12-22T15:01:58;10.77;;;4.72;;
52554;SDS011;38455;52.710;6.502;2022-12-22T15:04:26;13.32;;;6.03;;
52554;SDS011;38455;52.710;6.502;2022-12-22T15:06:51;11.98;;;5.22;;
52554;SDS011;38455;52.710;6.502;2022-12-22T15:09:39;14.43;;;5.68;;
52554;SDS011;38455;52.710;6.502;2022-12-22T15:12:08;13.35;;;6.00;;
52554;SDS011;38455;52.710;6.502;2022-12-22T15:14:36;15.10;;;6.53;;
52554;SDS011;38455;52.710;6.502;2022-12-22T15:17:03;13.73;;;6.63;;
52554;SDS011;38455;52.710;6.502;2022-12-22T15:19:30;11.85;;;6.90;;
52554;SDS011;38455;52.710;6.502;2022-12-22T15:22:00;16.30;;;7.63;;
52554;SDS011;38455;52.710;6.502;2022-12-22T15:24:26;16.88;;;7.50;;
52554;SDS011;38455;52.710;6.502;2022-12-22T15:26:53;15.85;;;8.25;;
52554;SDS011;38455;52.710;6.502;2022-12-22T15:29:19;17.23;;;8.85;;
52554;SDS011;38455;52.710;6.502;2022-12-22T15:31:44;14.63;;;8.65;;
52554;SDS011;38455;52.710;6.502;2022-12-22T15:34:12;16.67;;;10.10;;
52554;SDS011;38455;52.710;6.502;2022-12-22T15:36:49;18.85;;;10.57;;
52554;SDS011;38455;52.710;6.502;2022-12-22T15:39:16;20.85;;;11.85;;
52554;SDS011;38455;52.710;6.502;2022-12-22T15:41:43;22.27;;;10.02;;
52554;SDS011;38455;52.710;6.502;2022-12-22T15:44:09;22.30;;;10.93;;
52554;SDS011;38455;52.710;6.502;2022-12-22T15:46:35;20.33;;;10.55;;
52554;SDS011;38455;52.710;6.502;2022-12-22T15:49:04;19.20;;;10.82;;
52554;SDS011;38455;52.710;6.502;2022-12-22T15:51:36;19.45;;;11.27;;
52554;SDS011;38455;52.710;6.502;2022-12-22T15:54:02;18.27;;;10.55;;
52554;SDS011;38455;52.710;6.502;2022-12-22T15:56:29;26.42;;;11.77;;
52554;SDS011;38455;52.710;6.502;2022-12-22T15:58:57;20.50;;;11.60;;
52554;SDS011;38455;52.710;6.502;2022-12-22T16:01:25;19.73;;;10.95;;
52554;SDS011;38455;52.710;6.502;2022-12-22T16:03:50;18.73;;;11.07;;
52554;SDS011;38455;52.710;6.502;2022-12-22T16:06:16;17.55;;;10.50;;
52554;SDS011;38455;52.710;6.502;2022-12-22T16:08:47;21.80;;;10.55;;
52554;SDS011;38455;52.710;6.502;2022-12-22T16:11:15;18.13;;;10.82;;
52554;SDS011;38455;52.710;6.502;2022-12-22T16:13:41;19.13;;;10.38;;
52554;SDS011;38455;52.710;6.502;2022-12-22T16:16:07;20.23;;;10.90;;
52554;SDS011;38455;52.710;6.502;2022-12-22T16:18:33;22.00;;;10.73;;
52554;SDS011;38455;52.710;6.502;2022-12-22T16:21:01;20.85;;;10.80;;
52554;SDS011;38455;52.710;6.502;2022-12-22T16:23:32;20.67;;;11.60;;
52554;SDS011;38455;52.710;6.502;2022-12-22T16:26:00;24.15;;;10.82;;
52554;SDS011;38455;52.710;6.502;2022-12-22T16:28:25;21.63;;;11.40;;
52554;SDS011;38455;52.710;6.502;2022-12-22T16:30:51;24.92;;;12.55;;
52554;SDS011;38455;52.710;6.502;2022-12-22T16:33:18;26.00;;;12.52;;
52554;SDS011;38455;52.710;6.502;2022-12-22T16:35:44;25.13;;;13.25;;
52554;SDS011;38455;52.710;6.502;2022-12-22T16:38:10;24.27;;;12.68;;
52554;SDS011;38455;52.710;6.502;2022-12-22T16:40:42;25.63;;;14.07;;
52554;SDS011;38455;52.710;6.502;2022-12-22T16:43:18;28.05;;;11.82;;
52554;SDS011;38455;52.710;6.502;2022-12-22T16:45:49;26.77;;;14.05;;
52554;SDS011;38455;52.710;6.502;2022-12-22T16:48:24;23.67;;;13.25;;
52554;SDS011;38455;52.710;6.502;2022-12-22T16:50:52;28.15;;;13.38;;